Time;durP1;ratioP1;P1;durP2;ratioP2;P2;SDS_P1;SDS_P2;PMS_P1;PMS_P2;Temp;Humidity;BMP_temperature;BMP_pressure;BME280_temperature;BME280_humidity;BME280_pressure;Samples;Min_cycle;Max_cycle;Signal;HPM_P1;HPM_P2
2022/04/20 00:02:07;;;;;;;1.27;1.17;;;;;;;;;;5007335;28;20034;-65
2022/04/20 00:04:34;;;;;;;1.73;1.00;;;;;;;;;;5003325;28;20029;-65
2022/04/20 00:07:00;;;;;;;6.95;1.73;;;;;;;;;;4998852;28;20038;-67
2022/04/20 00:09:26;;;;;;;1.25;1.15;;;;;;;;;;5007262;28;20037;-65
2022/04/20 00:11:52;;;;;;;1.75;1.65;;;;;;;;;;5006301;28;20045;-66
2022/04/20 00:14:18;;;;;;;2.35;1.42;;;10.30;93.50;;;;;;5008022;28;20026;-65
2022/04/20 00:16:44;;;;;;;1.40;1.30;;;;;;;;;;5001287;28;20125;-66
2022/04/20 00:19:10;;;;;;;2.97;1.73;;;;;;;;;;5002172;28;20033;-64
2022/04/20 00:21:36;;;;;;;1.40;1.10;;;10.10;96.00;;;;;;5006431;28;20026;-64
2022/04/20 00:24:01;;;;;;;2.63;1.35;;;10.20;91.80;;;;;;5006856;28;20444;-64
2022/04/20 00:26:27;;;;;;;2.33;1.27;;;;;;;;;;5003371;28;20109;-65
2022/04/20 00:28:53;;;;;;;2.58;0.90;;;;;;;;;;5002214;28;20139;-65
2022/04/20 00:31:19;;;;;;;1.67;1.15;;;9.80;96.10;;;;;;5005339;28;20120;-65
2022/04/20 00:33:45;;;;;;;2.38;1.55;;;;;;;;;;5005865;28;20026;-65
2022/04/20 00:36:11;;;;;;;1.27;0.93;;;;;;;;;;5003073;28;20080;-64
2022/04/20 00:38:37;;;;;;;2.22;1.48;;;;;;;;;;5000736;28;20501;-66
2022/04/20 00:41:03;;;;;;;1.20;1.10;;;;;;;;;;5008889;28;20143;-65
2022/04/20 00:43:29;;;;;;;1.45;0.95;;;;;;;;;;5005945;28;20022;-65
2022/04/20 00:45:56;;;;;;;1.38;1.20;;;9.50;83.60;;;;;;5002708;28;20037;-65
2022/04/20 00:48:23;;;;;;;1.30;1.08;;;;;;;;;;5015584;28;20032;-65
2022/04/20 00:50:49;;;;;;;1.98;1.23;;;;;;;;;;5006979;28;20446;-64
2022/04/20 00:53:15;;;;;;;1.48;1.15;;;9.40;91.10;;;;;;5007206;28;20030;-64
2022/04/20 00:55:41;;;;;;;2.47;1.77;;;;;;;;;;5002706;28;20626;-65
2022/04/20 00:58:06;;;;;;;1.30;1.08;;;;;;;;;;5000540;28;20495;-66
2022/04/20 01:00:32;;;;;;;1.05;0.95;;;;;;;;;;5006247;28;20068;-65
2022/04/20 01:02:59;;;;;;;0.80;0.77;;;;;;;;;;5004231;28;20030;-64
2022/04/20 01:05:25;;;;;;;3.53;1.98;;;;;;;;;;5004068;28;20045;-65
2022/04/20 01:07:51;;;;;;;2.90;1.25;;;;;;;;;;5015326;28;20025;-65
2022/04/20 01:10:17;;;;;;;2.03;1.08;;;;;;;;;;5005695;28;20125;-65
2022/04/20 01:12:44;;;;;;;1.55;1.33;;;;;;;;;;5006200;28;20658;-64
2022/04/20 01:15:12;;;;;;;2.25;1.83;;;;;;;;;;5005744;28;20040;-65
2022/04/20 01:17:38;;;;;;;2.55;1.23;;;;;;;;;;4997756;28;20045;-65
2022/04/20 01:20:05;;;;;;;4.70;1.38;;;;;;;;;;5007226;28;20365;-65
2022/04/20 01:22:31;;;;;;;1.27;1.00;;;;;;;;;;5006284;28;20038;-64
2022/04/20 01:24:57;;;;;;;1.10;1.02;;;;;;;;;;5006379;28;20033;-65
2022/04/20 01:27:24;;;;;;;3.10;1.63;;;9.10;96.70;;;;;;5001290;28;20049;-64
2022/04/20 01:29:50;;;;;;;1.45;1.33;;;;;;;;;;5008678;28;21459;-65
2022/04/20 01:32:16;;;;;;;1.23;1.10;;;9.10;98.00;;;;;;5026453;28;20041;-64
2022/04/20 01:34:42;;;;;;;2.47;1.25;;;;;;;;;;5009882;28;20037;-65
2022/04/20 01:37:08;;;;;;;2.60;1.50;;;;;;;;;;4999798;28;20128;-64
2022/04/20 01:39:34;;;;;;;2.35;1.40;;;;;;;;;;5008683;28;20026;-65
2022/04/20 01:42:00;;;;;;;1.83;1.38;;;;;;;;;;5009624;28;20029;-64
2022/04/20 01:44:26;;;;;;;1.88;1.48;;;;;;;;;;5011135;28;20026;-64
2022/04/20 01:46:52;;;;;;;2.30;1.38;;;;;;;;;;5004893;28;20623;-66
2022/04/20 01:49:18;;;;;;;1.67;1.25;;;;;;;;;;5006371;28;20236;-65
2022/04/20 01:51:46;;;;;;;1.00;1.00;;;;;;;;;;5007564;28;20038;-64
2022/04/20 01:54:12;;;;;;;1.52;0.93;;;;;;;;;;5009347;28;20026;-65
2022/04/20 01:56:38;;;;;;;1.50;1.25;;;;;;;;;;5006482;28;20498;-64
2022/04/20 01:59:04;;;;;;;0.95;0.85;;;;;;;;;;5004793;28;20080;-64
2022/04/20 02:04:15;;;;;;;1.40;1.23;;;;;;;;;;5006243;28;20068;-64
2022/04/20 02:06:42;;;;;;;1.63;0.98;;;;;;;;;;5021026;28;20465;-66
2022/04/20 02:09:08;;;;;;;1.25;1.00;;;;;;;;;;5007155;28;20717;-64
2022/04/20 02:11:35;;;;;;;7.43;1.67;;;;;;;;;;5009243;28;20041;-65
2022/04/20 02:14:01;;;;;;;5.18;1.38;;;;;;;;;;5009926;28;20534;-65
2022/04/20 02:16:27;;;;;;;1.95;1.30;;;;;;;;;;5006511;28;20117;-65
2022/04/20 02:18:53;;;;;;;3.65;1.27;;;;;;;;;;5004208;28;20111;-65
2022/04/20 02:21:19;;;;;;;2.15;1.27;;;;;;;;;;5040971;28;20057;-65
2022/04/20 02:23:45;;;;;;;1.30;1.17;;;;;;;;;;5008274;28;20493;-63
2022/04/20 02:26:11;;;;;;;1.75;1.20;;;;;;;;;;5006469;28;20044;-64
2022/04/20 02:28:37;;;;;;;1.23;1.13;;;;;;;;;;5005096;28;20509;-65
2022/04/20 02:31:03;;;;;;;2.10;1.15;;;;;;;;;;5005557;28;20054;-65
2022/04/20 02:33:29;;;;;;;1.38;0.98;;;;;;;;;;5008430;28;20046;-65
2022/04/20 02:35:57;;;;;;;2.28;1.40;;;;;;;;;;5005159;28;20026;-64
2022/04/20 02:38:23;;;;;;;;;;;;;;;;;;5004422;28;20069;-65
2022/04/20 02:40:51;;;;;;;0.95;0.80;;;;;;;;;;5009553;28;19941;-64
2022/04/20 02:43:17;;;;;;;1.65;0.90;;;;;;;;;;5006184;28;20030;-65
2022/04/20 02:45:43;;;;;;;1.67;1.58;;;;;;;;;;5005396;28;20089;-65
2022/04/20 02:48:10;;;;;;;1.23;1.15;;;;;;;;;;5003752;28;20564;-64
2022/04/20 02:50:36;;;;;;;2.20;1.70;;;;;;;;;;5008472;28;20052;-66
2022/04/20 02:53:02;;;;;;;2.75;1.55;;;;;;;;;;5009573;28;20399;-64
2022/04/20 02:55:28;;;;;;;3.10;1.33;;;;;;;;;;5003844;28;20080;-64
2022/04/20 02:57:54;;;;;;;0.95;0.90;;;;;;;;;;5003631;28;20049;-65
2022/04/20 03:00:21;;;;;;;5.13;1.40;;;;;;;;;;5009969;28;20560;-65
2022/04/20 03:02:47;;;;;;;1.55;1.35;;;;;;;;;;5023467;28;20026;-65
2022/04/20 03:05:13;;;;;;;13.55;2.55;;;;;;;;;;5007285;28;20041;-66
2022/04/20 03:07:39;;;;;;;2.45;1.08;;;;;;;;;;4999994;28;20415;-65
2022/04/20 03:10:05;;;;;;;1.60;1.20;;;;;;;;;;5005123;28;20069;-64
2022/04/20 03:12:31;;;;;;;4.40;1.33;;;;;;;;;;5007190;28;20568;-64
2022/04/20 03:14:57;;;;;;;1.55;1.20;;;;;;;;;;5006612;28;20060;-65
2022/04/20 03:17:24;;;;;;;2.15;1.27;;;;;;;;;;4998704;28;20515;-64
2022/04/20 03:19:51;;;;;;;2.60;1.30;;;;;;;;;;5024055;28;20495;-64
2022/04/20 03:22:17;;;;;;;3.67;1.55;;;;;;;;;;5007184;28;20030;-65
2022/04/20 03:24:43;;;;;;;1.25;1.15;;;;;;;;;;5008117;28;20026;-64
2022/04/20 03:27:09;;;;;;;2.05;1.50;;;;;;;;;;4999117;28;20053;-64
2022/04/20 03:29:35;;;;;;;1.65;1.00;;;;;;;;;;5008436;28;20544;-65
2022/04/20 03:32:12;;;;;;;1.38;1.27;;;7.60;88.60;;;;;;5008827;28;20558;-64
2022/04/20 03:34:38;;;;;;;3.17;1.33;;;;;;;;;;5007766;28;20048;-64
2022/04/20 03:37:05;;;;;;;1.67;1.02;;;;;;;;;;4999541;28;20105;-65
2022/04/20 03:39:32;;;;;;;1.15;1.08;;;;;;;;;;5005350;28;20545;-64
2022/04/20 03:41:58;;;;;;;1.10;1.00;;;;;;;;;;5008406;28;20556;-64
2022/04/20 03:44:24;;;;;;;1.27;1.20;;;;;;;;;;5009308;28;20166;-64
2022/04/20 03:46:51;;;;;;;3.53;1.20;;;;;;;;;;5001147;28;20045;-66
2022/04/20 03:49:17;;;;;;;1.20;1.10;;;;;;;;;;5003648;28;20544;-65
2022/04/20 03:51:45;;;;;;;1.65;1.17;;;;;;;;;;5007771;28;20038;-66
2022/04/20 03:54:11;;;;;;;1.15;1.05;;;;;;;;;;5008477;28;20050;-64
2022/04/20 03:59:21;;;;;;;1.20;1.10;;;;;;;;;;5005712;28;20040;-65
2022/04/20 04:01:48;;;;;;;1.85;1.23;;;;;;;;;;5020575;28;20129;-65
2022/04/20 04:04:14;;;;;;;1.50;1.23;;;;;;;;;;5004579;28;20053;-65
2022/04/20 04:06:40;;;;;;;1.52;1.23;;;;;;;;;;5003181;28;20045;-64
2022/04/20 04:09:05;;;;;;;2.92;1.35;;;7.80;99.50;;;;;;5001958;28;20471;-65
2022/04/20 04:11:31;;;;;;;1.92;1.63;;;;;;;;;;5007747;28;20142;-64
2022/04/20 04:13:57;;;;;;;2.28;1.45;;;;;;;;;;5007467;28;20111;-65
2022/04/20 04:16:23;;;;;;;4.40;1.70;;;7.60;99.90;;;;;;5004296;28;20034;-65
2022/04/20 04:18:49;;;;;;;2.08;1.33;;;;;;;;;;4997779;28;20030;-64
2022/04/20 04:21:16;;;;;;;1.77;1.38;;;;;;;;;;5021970;28;20407;-65
2022/04/20 04:23:42;;;;;;;2.08;1.23;;;;;;;;;;5006982;28;20029;-64
2022/04/20 04:26:08;;;;;;;2.30;1.23;;;;;;;;;;5004890;28;20053;-63
2022/04/20 04:28:34;;;;;;;1.35;1.08;;;;;;;;;;5000730;28;20033;-66
2022/04/20 04:31:00;;;;;;;3.67;1.10;;;;;;;;;;5006606;28;20113;-65
2022/04/20 04:33:26;;;;;;;5.68;0.98;;;;;;;;;;5006271;28;20483;-64
2022/04/20 04:35:52;;;;;;;1.00;0.90;;;;;;;;;;5004132;28;20034;-65
2022/04/20 04:38:18;;;;;;;1.50;1.20;;;;;;;;;;4998520;28;20026;-64
2022/04/20 04:40:44;;;;;;;1.95;0.95;;;;;;;;;;5004357;28;20095;-65
2022/04/20 04:43:10;;;;;;;2.13;1.17;;;;;;;;;;5004808;28;20029;-64
2022/04/20 04:48:39;;;;;;;2.58;1.85;;;;;;;;;;5001040;28;20745;-65
2022/04/20 04:51:06;;;;;;;3.72;1.30;;;;;;;;;;5005065;28;20143;-65
2022/04/20 04:53:32;;;;;;;1.63;1.20;;;;;;;;;;5007174;28;20026;-65
2022/04/20 04:55:58;;;;;;;1.25;1.15;;;7.20;97.80;;;;;;5003340;28;20057;-64
2022/04/20 04:58:24;;;;;;;2.55;2.10;;;;;;;;;;5000568;28;20462;-65
2022/04/20 05:00:49;;;;;;;2.65;1.63;;;7.80;99.90;;;;;;5006290;28;20060;-64
2022/04/20 05:03:16;;;;;;;2.05;1.42;;;;;;;;;;5007377;28;20570;-64
2022/04/20 05:05:43;;;;;;;1.33;0.98;;;;;;;;;;5003416;28;20044;-65
2022/04/20 05:08:09;;;;;;;1.90;1.30;;;;;;;;;;5000645;28;20175;-64
2022/04/20 05:10:35;;;;;;;1.92;1.40;;;7.70;98.80;;;;;;5007610;28;20030;-65
2022/04/20 05:13:02;;;;;;;4.65;1.67;;;;;;;;;;5021422;28;20040;-64
2022/04/20 05:15:28;;;;;;;2.17;2.00;;;;;;;;;;5002586;28;20060;-66
2022/04/20 05:17:54;;;;;;;6.30;2.10;;;;;;;;;;5000728;28;20440;-65
2022/04/20 05:20:20;;;;;;;1.15;1.02;;;;;;;;;;5021523;28;20069;-64
2022/04/20 05:22:46;;;;;;;2.53;1.77;;;;;;;;;;5002468;28;20065;-66
2022/04/20 05:25:12;;;;;;;1.40;1.30;;;;;;;;;;5002100;28;20061;-65
2022/04/20 05:27:38;;;;;;;2.15;1.55;;;;;;;;;;4999377;28;20033;-65
2022/04/20 05:30:06;;;;;;;2.13;1.40;;;8.00;89.30;;;;;;5007030;28;20643;-65
2022/04/20 05:32:32;;;;;;;;;;;;;;;;;;5006031;28;20038;-64
2022/04/20 05:34:58;;;;;;;1.92;1.30;;;8.40;97.90;;;;;;5007002;28;20271;-64
2022/04/20 05:42:54;;;;;;;3.65;1.35;;;;;;;;;;5006106;28;20040;-65
2022/04/20 05:45:20;;;;;;;2.08;1.30;;;;;;;;;;4998208;28;20045;-65
2022/04/20 05:47:47;;;;;;;1.30;1.20;;;;;;;;;;4997522;28;20037;-65
2022/04/20 05:50:13;;;;;;;2.45;1.73;;;;;;;;;;5001268;28;20456;-65
2022/04/20 05:52:39;;;;;;;2.38;1.45;;;;;;;;;;5004430;28;20081;-65
2022/04/20 05:55:05;;;;;;;2.42;2.08;;;;;;;;;;4984123;28;21375;-66
2022/04/20 05:57:33;;;;;;;2.97;1.40;;;;;;;;;;4971096;28;20060;-65
2022/04/20 05:59:59;;;;;;;2.72;2.33;;;;;;;;;;5005653;28;20507;-65
2022/04/20 06:02:25;;;;;;;3.47;2.22;;;;;;;;;;5023720;28;20037;-64
2022/04/20 06:04:51;;;;;;;5.18;1.95;;;;;;;;;;5019908;28;20412;-63
2022/04/20 06:07:17;;;;;;;3.00;1.67;;;;;;;;;;5014821;28;20083;-66
2022/04/20 06:09:43;;;;;;;5.20;1.95;;;;;;;;;;5023090;28;20071;-65
2022/04/20 06:12:09;;;;;;;2.38;1.60;;;;;;;;;;5024115;28;20056;-63
2022/04/20 06:14:35;;;;;;;4.10;2.08;;;;;;;;;;5025497;28;20474;-65
2022/04/20 06:17:01;;;;;;;4.15;2.58;;;;;;;;;;5022294;28;21226;-68
2022/04/20 06:19:27;;;;;;;2.67;1.92;;;;;;;;;;5058551;28;20021;-67
2022/04/20 06:21:53;;;;;;;5.03;2.15;;;;;;;;;;5029583;28;20421;-67
2022/04/20 06:24:19;;;;;;;5.32;2.38;;;;;;;;;;5025136;28;20025;-66
2022/04/20 06:26:45;;;;;;;7.68;3.50;;;;;;;;;;5021299;28;20041;-65
2022/04/20 06:29:11;;;;;;;3.00;2.05;;;;;;;;;;5023796;28;20390;-66
2022/04/20 06:31:39;;;;;;;2.58;1.80;;;;;;;;;;5025498;28;20033;-65
2022/04/20 06:34:05;;;;;;;2.15;1.63;;;;;;;;;;5026922;28;20021;-67
2022/04/20 06:36:31;;;;;;;2.70;2.50;;;;;;;;;;5020348;28;20140;-66
2022/04/20 06:38:57;;;;;;;3.72;1.70;;;;;;;;;;5020133;28;20086;-66
2022/04/20 06:41:24;;;;;;;3.22;2.05;;;;;;;;;;5027208;28;20041;-67
2022/04/20 06:43:51;;;;;;;6.85;2.08;;;;;;;;;;5026191;28;20033;-66
2022/04/20 06:46:16;;;;;;;2.45;2.03;;;;;;;;;;5020386;28;20483;-65
2022/04/20 06:48:42;;;;;;;4.90;2.75;;;;;;;;;;5018288;28;20030;-65
2022/04/20 06:51:08;;;;;;;3.35;2.28;;;;;;;;;;5023304;28;20030;-70
2022/04/20 06:59:03;;;;;;;5.78;2.28;;;16.40;87.80;;;;;;5021016;28;20545;-66
2022/04/20 07:01:29;;;;;;;1.50;1.40;;;;;;;;;;5027407;28;20128;-65
2022/04/20 07:03:55;;;;;;;4.05;2.33;;;;;;;;;;5018837;28;20498;-66
2022/04/20 07:06:21;;;;;;;11.07;2.03;;;;;;;;;;5053113;28;20087;-66
2022/04/20 07:08:48;;;;;;;5.95;3.72;;;;;;;;;;5017931;28;20029;-67
2022/04/20 07:11:15;;;;;;;7.25;2.72;;;;;;;;;;5028325;28;20045;-66
2022/04/20 07:13:41;;;;;;;6.15;2.03;;;;;;;;;;5021734;28;20032;-66
2022/04/20 07:16:07;;;;;;;12.75;2.22;;;;;;;;;;5053517;28;20040;-65
2022/04/20 07:18:33;;;;;;;9.43;2.42;;;;;;;;;;5029099;28;20032;-66
2022/04/20 07:21:03;;;;;;;6.20;1.70;;;;;;;;;;5014413;28;20108;-66
2022/04/20 07:23:29;;;;;;;2.97;1.65;;;;;;;;;;5034749;28;20736;-65
2022/04/20 07:25:55;;;;;;;2.50;1.53;;;;;;;;;;5022077;28;20036;-65
2022/04/20 07:28:21;;;;;;;5.82;1.67;;;;;;;;;;5018812;28;20648;-67
2022/04/20 07:30:48;;;;;;;2.72;1.70;;;;;;;;;;5023729;28;20145;-66
2022/04/20 07:33:14;;;;;;;9.23;2.57;;;;;;;;;;5025401;28;20078;-66
2022/04/20 07:35:40;;;;;;;5.10;2.00;;;;;;;;;;5031732;28;20268;-70
2022/04/20 07:38:06;;;;;;;2.95;1.95;;;;;;;;;;5023318;28;20036;-69
2022/04/20 07:40:32;;;;;;;3.03;2.53;;;;;;;;;;5015032;28;20030;-69
2022/04/20 07:42:58;;;;;;;2.13;1.93;;;;;;;;;;5021488;28;20041;-67
2022/04/20 07:45:27;;;;;;;6.03;1.83;;;;;;;;;;5021585;28;20065;-68
2022/04/20 07:47:57;;;;;;;2.92;1.48;;;;;;;;;;5023270;28;20041;-69
2022/04/20 07:50:24;;;;;;;2.67;1.83;;;;;;;;;;5019905;28;20561;-70
2022/04/20 07:52:51;;;;;;;2.20;1.63;;;;;;;;;;5025607;28;20037;-69
2022/04/20 07:55:18;;;;;;;2.22;1.60;;;;;;;;;;5020817;28;20113;-69
2022/04/20 07:57:45;;;;;;;9.80;1.75;;;;;;;;;;5015008;28;20039;-69
2022/04/20 08:00:12;;;;;;;;;;;30.30;31.50;;;;;;5012997;28;20021;-69
2022/04/20 08:02:38;;;;;;;2.85;1.38;;;;;;;;;;5003809;28;19921;-69
2022/04/20 08:05:04;;;;;;;1.85;1.30;;;;;;;;;;5023222;28;20075;-69
2022/04/20 08:07:30;;;;;;;3.50;2.42;;;;;;;;;;5022346;28;20033;-69
2022/04/20 08:09:56;;;;;;;1.33;1.00;;;31.90;43.90;;;;;;5022403;28;20087;-69
2022/04/20 08:12:24;;;;;;;9.07;1.97;;;;;;;;;;5023232;28;20037;-70
2022/04/20 08:14:51;;;;;;;4.32;2.05;;;;;;;;;;5035111;28;20148;-69
2022/04/20 08:17:17;;;;;;;4.05;1.33;;;;;;;;;;5022269;28;20036;-69
2022/04/20 08:19:43;;;;;;;1.77;1.10;;;;;;;;;;5024521;28;20120;-70
2022/04/20 08:22:09;;;;;;;1.38;1.13;;;34.30;41.80;;;;;;5022072;28;20027;-70
2022/04/20 08:24:36;;;;;;;1.95;0.90;;;;;;;;;;5025041;28;20032;-70
2022/04/20 08:27:02;;;;;;;0.88;0.60;;;33.90;30.80;;;;;;5023524;28;20039;-70
2022/04/20 08:29:27;;;;;;;3.28;1.08;;;34.80;25.80;;;;;;5025742;28;20034;-70
2022/04/20 08:31:53;;;;;;;1.60;0.95;;;;;;;;;;5014305;28;20049;-70
2022/04/20 08:34:19;;;;;;;2.70;0.60;;;34.80;40.40;;;;;;5017173;28;20033;-69
2022/04/20 08:36:45;;;;;;;0.82;0.52;;;;;;;;;;5021510;28;20045;-69
2022/04/20 08:39:11;;;;;;;2.53;0.90;;;;;;;;;;5016208;28;20030;-68
2022/04/20 08:41:37;;;;;;;2.47;0.60;;;;;;;;;;5024645;28;20068;-68
2022/04/20 08:44:04;;;;;;;2.67;0.50;;;35.60;24.80;;;;;;5019162;28;20024;-70
2022/04/20 08:46:34;;;;;;;0.77;0.60;;;;;;;;;;5024885;28;20041;-70
2022/04/20 08:49:00;;;;;;;1.15;0.40;;;;;;;;;;5017233;28;20120;-69
2022/04/20 08:52:37;;;;;;;1.35;0.55;;;;;;;;;;5025163;28;20494;-69
2022/04/20 08:54:12;;;;;;;;;;;;;;;;;;5016176;28;20041;-68
2022/04/20 08:59:23;;;;;;;0.98;0.63;;;;;;;;;;5027571;28;19931;-69
2022/04/20 09:01:49;;;;;;;3.10;0.70;;;;;;;;;;5015066;28;20033;-69
2022/04/20 09:04:15;;;;;;;0.98;0.77;;;;;;;;;;5015109;28;20025;-68
2022/04/20 09:06:46;;;;;;;0.80;0.45;;;;;;;;;;5021431;28;20125;-69
2022/04/20 09:09:12;;;;;;;2.00;0.73;;;;;;;;;;5010853;28;20076;-70
2022/04/20 09:11:38;;;;;;;4.32;0.60;;;;;;;;;;5030828;28;20117;-69
2022/04/20 09:14:14;;;;;;;7.35;1.10;;;;;;;;;;5013034;28;20045;-68
2022/04/20 09:16:41;;;;;;;1.17;0.73;;;33.60;39.70;;;;;;5018967;28;20086;-68
2022/04/20 09:19:07;;;;;;;3.05;0.50;;;34.00;40.20;;;;;;5021120;28;20026;-69
2022/04/20 09:21:34;;;;;;;4.00;0.63;;;;;;;;;;5022179;28;20658;-67
2022/04/20 09:24:07;;;;;;;4.65;1.30;;;;;;;;;;5006315;28;20033;-68
2022/04/20 09:26:33;;;;;;;1.95;1.02;;;;;;;;;;5012593;28;20034;-70
2022/04/20 09:29:06;;;;;;;6.33;1.20;;;;;;;;;;5025830;28;20082;-68
2022/04/20 09:31:45;;;;;;;3.38;0.80;;;;;;;;;;5021472;28;20029;-68
2022/04/20 09:34:33;;;;;;;2.97;0.85;;;31.70;27.00;;;;;;5010829;28;20052;-71
2022/04/20 09:36:59;;;;;;;1.85;0.95;;;;;;;;;;5020201;28;20459;-70
2022/04/20 09:39:31;;;;;;;3.33;1.00;;;;;;;;;;5017004;28;20037;-70
2022/04/20 09:42:02;;;;;;;9.60;0.85;;;;;;;;;;5007011;28;20397;-69
2022/04/20 09:44:29;;;;;;;1.48;0.77;;;;;;;;;;5012504;28;20037;-72
2022/04/20 09:49:53;;;;;;;0.88;0.60;;;;;;;;;;5025451;28;20406;-69
2022/04/20 09:52:19;;;;;;;2.65;1.10;;;;;;;;;;5023013;28;20044;-68
2022/04/20 09:54:53;;;;;;;1.63;0.70;;;;;;;;;;5017411;28;20072;-69
2022/04/20 09:57:19;;;;;;;2.83;1.90;;;;;;;;;;5027242;28;20095;-69
2022/04/20 09:59:59;;;;;;;4.22;1.15;;;;;;;;;;5025696;28;20096;-70
2022/04/20 10:02:25;;;;;;;4.63;0.98;;;;;;;;;;5021091;28;20386;-70
2022/04/20 10:04:52;;;;;;;1.63;0.82;;;;;;;;;;5021037;28;20076;-69
2022/04/20 10:07:18;;;;;;;;;;;;;;;;;;5026346;28;20739;-68
2022/04/20 10:09:45;;;;;;;3.33;1.20;;;;;;;;;;5026559;28;20031;-68
2022/04/20 10:12:14;;;;;;;6.55;0.95;;;;;;;;;;5023833;28;20126;-68
2022/04/20 10:17:26;;;;;;;4.80;1.83;;;;;;;;;;5028326;28;20056;-69
2022/04/20 10:19:53;;;;;;;2.70;1.42;;;;;;;;;;5027356;28;20028;-69
2022/04/20 10:22:20;;;;;;;1.58;1.40;;;;;;;;;;5022155;28;20045;-70
2022/04/20 10:24:47;;;;;;;2.95;0.80;;;;;;;;;;5018807;28;20507;-68
2022/04/20 10:27:25;;;;;;;1.60;1.00;;;28.30;30.50;;;;;;5025572;28;20101;-68
2022/04/20 10:29:59;;;;;;;8.57;2.45;;;;;;;;;;5032703;28;20056;-68
2022/04/20 10:32:26;;;;;;;2.38;1.20;;;;;;;;;;5020742;28;21596;-68
2022/04/20 10:34:52;;;;;;;;;;;;;;;;;;5020638;28;20102;-69
2022/04/20 10:37:31;;;;;;;2.30;0.90;;;26.30;32.60;;;;;;5026364;28;19913;-69
2022/04/20 10:40:15;;;;;;;2.58;1.23;;;;;;;;;;5026870;28;20068;-69
2022/04/20 10:42:41;;;;;;;1.70;0.95;;;;;;;;;;5016364;28;20050;-69
2022/04/20 10:45:10;;;;;;;2.47;1.23;;;25.80;32.70;;;;;;5023591;28;20033;-68
2022/04/20 10:47:42;;;;;;;2.28;1.48;;;;;;;;;;5026258;28;20808;-68
2022/04/20 10:50:16;;;;;;;2.72;1.17;;;;;;;;;;5041090;28;20018;-69
2022/04/20 10:52:44;;;;;;;1.65;0.90;;;;;;;;;;5017561;28;20453;-69
2022/04/20 10:55:11;;;;;;;1.67;0.90;;;;;;;;;;5022829;28;20033;-69
2022/04/20 10:57:38;;;;;;;1.00;0.70;;;;;;;;;;5026803;28;20037;-68
2022/04/20 11:00:04;;;;;;;;;;;;;;;;;;5042512;28;20040;-68
2022/04/20 11:02:30;;;;;;;4.70;1.03;;;;;;;;;;5021380;28;19905;-68
2022/04/20 11:05:12;;;;;;;3.08;1.27;;;;;;;;;;5019669;28;20044;-69
2022/04/20 11:07:58;;;;;;;2.83;1.20;;;;;;;;;;5026470;28;20035;-68
2022/04/20 11:10:24;;;;;;;1.85;1.05;;;;;;;;;;5026604;28;20029;-68
2022/04/20 11:21:07;;;;;;;4.05;1.60;;;;;;;;;;5026824;28;20044;-68
2022/04/20 11:23:53;;;;;;;2.25;1.13;;;;;;;;;;5012767;28;20029;-67
2022/04/20 11:26:25;;;;;;;2.25;1.27;;;;;;;;;;5026869;28;20120;-71
2022/04/20 11:29:10;;;;;;;2.08;1.70;;;;;;;;;;5043807;28;20029;-72
2022/04/20 11:31:42;;;;;;;1.40;1.05;;;;;;;;;;5028716;28;20048;-69
2022/04/20 11:34:08;;;;;;;3.65;1.75;;;;;;;;;;5016531;28;20028;-69
2022/04/20 11:36:34;;;;;;;1.65;1.20;;;;;;;;;;5025479;28;20033;-71
2022/04/20 11:39:01;;;;;;;1.85;1.23;;;;;;;;;;5026042;28;20026;-69
2022/04/20 11:41:27;;;;;;;2.72;2.03;;;;;;;;;;5026998;28;20033;-68
2022/04/20 11:43:53;;;;;;;2.60;1.30;;;;;;;;;;5033453;28;20038;-69
2022/04/20 11:46:20;;;;;;;1.92;1.30;;;;;;;;;;5026010;28;20760;-68
2022/04/20 11:48:50;;;;;;;5.15;1.83;;;;;;;;;;5025345;28;20112;-73
2022/04/20 11:51:19;;;;;;;3.15;1.60;;;;;;;;;;5030526;28;20056;-70
2022/04/20 11:53:46;;;;;;;1.77;1.30;;;;;;;;;;5013361;28;20037;-71
2022/04/20 11:56:13;;;;;;;1.70;1.60;;;;;;;;;;5027882;28;20160;-71
2022/04/20 11:58:38;;;;;;;7.60;1.17;;;22.80;50.20;;;;;;5025007;28;20080;-70
2022/04/20 12:01:05;;;;;;;4.18;1.88;;;;;;;;;;5026253;28;20087;-70
2022/04/20 12:03:32;;;;;;;2.40;1.52;;;;;;;;;;5012388;28;20688;-71
2022/04/20 12:06:02;;;;;;;1.88;0.98;;;;;;;;;;5037794;28;20120;-71
2022/04/20 12:08:29;;;;;;;3.42;0.80;;;;;;;;;;5025499;28;20445;-71
2022/04/20 12:10:55;;;;;;;2.97;1.30;;;;;;;;;;5025722;28;20167;-70
2022/04/20 12:13:29;;;;;;;1.90;0.98;;;;;;;;;;5011817;28;20518;-72
2022/04/20 12:16:01;;;;;;;3.53;1.40;;;;;;;;;;5024685;28;20033;-72
2022/04/20 12:18:29;;;;;;;5.25;0.90;;;22.50;36.80;;;;;;5025771;28;20030;-68
2022/04/20 12:20:56;;;;;;;4.57;1.25;;;;;;;;;;5025472;28;20113;-69
2022/04/20 12:23:22;;;;;;;3.15;2.20;;;;;;;;;;5014709;28;20155;-70
2022/04/20 12:25:52;;;;;;;3.17;1.30;;;;;;;;;;5024133;28;20621;-69
2022/04/20 12:28:38;;;;;;;7.50;1.55;;;;;;;;;;5029098;28;20034;-71
2022/04/20 12:31:04;;;;;;;2.72;0.85;;;;;;;;;;5040733;28;20051;-68
2022/04/20 12:33:30;;;;;;;2.47;1.25;;;;;;;;;;5003936;28;20067;-69
2022/04/20 12:36:11;;;;;;;3.70;1.20;;;22.20;37.40;;;;;;5014371;28;20024;-68
2022/04/20 12:38:50;;;;;;;2.53;1.00;;;22.60;37.10;;;;;;5026280;28;20026;-69
2022/04/20 12:41:35;;;;;;;4.88;1.50;;;;;;;;;;5025612;28;20033;-69
2022/04/20 12:44:03;;;;;;;1.88;1.25;;;;;;;;;;5012981;28;20560;-69
2022/04/20 12:46:35;;;;;;;2.22;1.20;;;;;;;;;;5023611;28;20409;-69
2022/04/20 12:49:02;;;;;;;1.90;0.90;;;;;;;;;;5025555;28;20505;-68
2022/04/20 12:51:28;;;;;;;1.35;0.88;;;;;;;;;;5038832;28;20040;-68
2022/04/20 12:53:55;;;;;;;6.20;1.40;;;;;;;;;;5014367;28;20025;-69
2022/04/20 13:02:03;;;;;;;6.30;1.55;;;;;;;;;;5024396;28;20129;-68
2022/04/20 13:04:29;;;;;;;3.05;1.63;;;;;;;;;;5004558;28;21109;-68
2022/04/20 13:06:56;;;;;;;2.55;1.50;;;;;;;;;;5036928;28;20033;-67
2022/04/20 13:09:22;;;;;;;8.68;2.85;;;;;;;;;;5024858;28;20107;-67
2022/04/20 13:11:48;;;;;;;2.78;1.63;;;;;;;;;;5024540;28;20101;-67
2022/04/20 13:14:15;;;;;;;3.92;1.67;;;;;;;;;;5005456;28;20068;-68
2022/04/20 13:16:41;;;;;;;5.00;2.53;;;;;;;;;;5023702;28;20510;-67
2022/04/20 13:19:07;;;;;;;2.90;1.95;;;;;;;;;;5025074;28;20029;-68
2022/04/20 13:21:33;;;;;;;2.78;1.30;;;;;;;;;;5024550;28;20056;-68
2022/04/20 13:24:00;;;;;;;2.35;0.95;;;;;;;;;;5015766;28;20037;-67
2022/04/20 13:29:12;;;;;;;3.85;0.73;;;;;;;;;;5030360;28;20525;-67
2022/04/20 13:31:38;;;;;;;2.15;0.80;;;;;;;;;;5005043;28;20061;-67
2022/04/20 13:34:04;;;;;;;2.03;0.93;;;;;;;;;;4993325;28;20084;-68
2022/04/20 13:36:30;;;;;;;1.42;0.93;;;;;;;;;;5005981;28;20053;-67
2022/04/20 13:38:57;;;;;;;1.48;0.70;;;;;;;;;;5005027;28;20018;-68
2022/04/20 13:41:23;;;;;;;9.73;1.33;;;;;;;;;;5009730;28;20030;-68
2022/04/20 13:43:49;;;;;;;1.45;0.90;;;;;;;;;;4997519;28;20030;-67
2022/04/20 13:46:15;;;;;;;1.13;0.90;;;;;;;;;;5006121;28;20112;-67
2022/04/20 13:48:41;;;;;;;4.82;1.63;;;;;;;;;;5007368;28;20541;-68
2022/04/20 13:51:08;;;;;;;2.72;1.13;;;;;;;;;;5007438;28;20025;-68
2022/04/20 13:53:34;;;;;;;1.10;0.70;;;;;;;;;;4998551;28;20037;-68
2022/04/20 13:55:59;;;;;;;3.45;1.67;;;;;;;;;;5009050;28;20546;-67
2022/04/20 13:58:25;;;;;;;2.65;1.00;;;;;;;;;;5006218;28;20034;-68
2022/04/20 14:00:51;;;;;;;1.30;0.90;;;;;;;;;;5007534;28;20102;-67
2022/04/20 14:03:17;;;;;;;1.70;0.98;;;;;;;;;;4998199;28;20038;-67
2022/04/20 14:05:43;;;;;;;1.75;0.82;;;;;;;;;;5006177;28;20100;-67
2022/04/20 14:08:09;;;;;;;1.20;0.80;;;;;;;;;;5008570;28;20108;-66
2022/04/20 14:10:37;;;;;;;0.88;0.65;;;;;;;;;;5007376;28;20578;-67
2022/04/20 14:13:04;;;;;;;1.23;1.08;;;;;;;;;;4998196;28;20163;-67
2022/04/20 14:15:30;;;;;;;2.20;1.42;;;;;;;;;;5003728;28;20143;-67
2022/04/20 14:17:56;;;;;;;3.40;1.90;;;;;;;;;;5005890;28;20523;-67
2022/04/20 14:20:22;;;;;;;1.95;1.20;;;;;;;;;;5008637;28;20030;-68
2022/04/20 14:22:48;;;;;;;2.83;1.30;;;;;;;;;;5000020;28;20117;-69
2022/04/20 14:33:28;;;;;;;6.97;1.17;;;;;;;;;;4996654;28;20049;-68
2022/04/20 14:35:55;;;;;;;2.00;1.10;;;;;;;;;;5005908;28;20032;-69
2022/04/20 14:38:21;;;;;;;6.53;1.83;;;;;;;;;;5008062;28;20030;-70
2022/04/20 14:40:47;;;;;;;2.10;1.10;;;;;;;;;;5007797;28;20506;-69
2022/04/20 14:43:13;;;;;;;1.92;1.33;;;;;;;;;;4996967;28;21412;-69
2022/04/20 14:45:39;;;;;;;5.03;1.50;;;;;;;;;;5003473;28;20117;-70
2022/04/20 14:48:05;;;;;;;4.55;1.30;;;18.80;73.80;;;;;;5006509;28;20040;-69
2022/04/20 14:50:31;;;;;;;4.18;1.55;;;;;;;;;;5006212;28;20026;-67
2022/04/20 14:52:58;;;;;;;2.22;1.40;;;;;;;;;;4996701;28;20053;-68
2022/04/20 14:55:24;;;;;;;4.20;1.55;;;;;;;;;;5006942;28;20070;-67
2022/04/20 14:57:51;;;;;;;2.40;1.70;;;;;;;;;;5000345;28;20037;-66
2022/04/20 15:00:17;;;;;;;2.65;1.45;;;;;;;;;;5004000;28;20030;-65
2022/04/20 15:02:43;;;;;;;1.15;0.95;;;;;;;;;;5002332;28;20037;-65
2022/04/20 15:05:09;;;;;;;1.38;1.08;;;;;;;;;;5002766;28;20131;-64
2022/04/20 15:07:36;;;;;;;3.67;1.55;;;;;;;;;;5004531;28;20514;-64
2022/04/20 15:10:02;;;;;;;1.45;1.35;;;;;;;;;;5005559;28;20076;-65
2022/04/20 15:12:29;;;;;;;1.10;0.95;;;;;;;;;;5003675;28;20042;-65
2022/04/20 15:14:57;;;;;;;1.75;1.08;;;;;;;;;;5000079;28;20029;-65
2022/04/20 15:17:23;;;;;;;3.55;1.50;;;;;;;;;;5007864;28;20510;-65
2022/04/20 15:19:52;;;;;;;7.25;1.10;;;;;;;;;;5005947;28;20085;-65
2022/04/20 15:22:18;;;;;;;9.05;2.08;;;;;;;;;;5003550;28;20570;-66
2022/04/20 15:24:44;;;;;;;5.78;1.67;;;;;;;;;;4998652;28;20030;-66
2022/04/20 15:27:10;;;;;;;4.38;1.42;;;;;;;;;;5006403;28;20052;-64